Time;durP1;ratioP1;P1;durP2;ratioP2;P2;SDS_P1;SDS_P2;PMS_P1;PMS_P2;Temp;Humidity;BMP_temperature;BMP_pressure;BME280_temperature;BME280_humidity;BME280_pressure;Samples;Min_cycle;Max_cycle;Signal;HPM_P1;HPM_P2
2021/06/08 00:01:58;;;;;;;;;17.00;16.25;;;;;21.25;47.77;101535.09;5093068;27;46079;-81
2021/06/08 00:04:23;;;;;;;;;15.50;14.75;;;;;21.19;47.66;101515.25;5093031;27;45759;-83
2021/06/08 00:06:50;;;;;;;;;16.00;15.50;;;;;21.28;47.77;101532.94;5092289;27;45753;-84
2021/06/08 00:09:17;;;;;;;;;17.75;16.50;;;;;21.24;47.69;101526.28;5093121;27;45589;-80
2021/06/08 00:11:42;;;;;;;;;15.50;15.25;;;;;21.27;47.70;101533.09;5092317;27;46531;-83
2021/06/08 00:14:08;;;;;;;;;16.00;16.00;;;;;21.26;48.29;101532.28;5094612;27;45696;-84
2021/06/08 00:16:33;;;;;;;;;19.00;18.00;;;;;21.26;47.73;101531.44;5093079;27;45626;-83
2021/06/08 00:18:59;;;;;;;;;19.25;19.00;;;;;21.26;47.81;101528.78;5093458;27;45852;-80
2021/06/08 00:24:46;;;;;;;;;16.00;15.75;;;;;21.08;47.69;101503.94;5092318;27;46223;-82
2021/06/08 00:27:11;;;;;;;;;21.50;16.75;;;;;21.23;47.87;101532.59;5093094;27;45791;-84
2021/06/08 00:29:36;;;;;;;;;17.50;17.00;;;;;21.10;47.51;101509.97;5092607;27;45737;-82
2021/06/08 00:32:03;;;;;;;;;17.75;17.50;;;;;20.95;47.68;101480.34;5093056;27;45773;-82
2021/06/08 00:34:28;;;;;;;;;19.50;19.25;;;;;21.14;48.03;101525.53;5094983;27;45984;-85
2021/06/08 00:40:15;;;;;;;;;20.75;19.00;;;;;21.11;48.13;101520.47;5092471;27;45652;-83
2021/06/08 00:42:40;;;;;;;;;19.25;18.25;;;;;21.12;48.44;101519.47;5092688;27;46261;-85
2021/06/08 00:45:08;;;;;;;;;19.75;17.75;;;;;21.13;48.03;101522.97;5093011;27;45516;-84
2021/06/08 00:47:34;;;;;;;;;16.50;15.50;;;;;20.79;48.16;101481.06;5093287;27;45816;-83
2021/06/08 00:49:59;;;;;;;;;15.75;15.75;;;;;21.10;48.12;101524.13;5092720;27;45783;-85
2021/06/08 00:52:25;;;;;;;;;19.50;17.25;;;;;21.09;48.22;101525.13;5057302;27;46987;-84
2021/06/08 00:54:50;;;;;;;;;22.75;22.75;;;;;21.08;48.22;101527.94;5074074;27;47185;-83
2021/06/08 00:57:17;;;;;;;;;21.00;20.50;;;;;21.05;48.22;101531.75;5091407;27;45985;-82
2021/06/08 00:59:42;;;;;;;;;24.25;22.75;;;;;21.02;48.28;101534.72;5093665;27;45807;-83
2021/06/08 01:02:07;;;;;;;;;24.00;21.75;;;;;20.95;48.43;101529.16;5092060;27;45588;-86
2021/06/08 01:04:33;;;;;;;;;15.75;13.75;;;;;20.91;48.44;101533.13;5093477;27;46077;-86
2021/06/08 01:10:20;;;;;;;;;22.00;20.00;;;;;20.82;48.40;101518.06;5090405;27;46372;-85
2021/06/08 01:12:46;;;;;;;;;21.00;21.00;;;;;20.73;48.84;101512.84;5073506;27;47500;-83
2021/06/08 01:15:12;;;;;;;;;18.50;17.00;;;;;20.74;49.53;101525.13;5074092;27;46111;-84
2021/06/08 01:17:37;;;;;;;;;15.75;15.75;;;;;20.64;49.72;101503.91;5095273;27;45920;-81
2021/06/08 01:20:06;;;;;;;;;16.75;16.00;;;;;20.61;49.60;101506.06;5098071;27;45765;-82
2021/06/08 01:25:55;;;;;;;;;16.00;15.00;;;;;20.52;50.02;101511.28;5093111;27;45849;-80
2021/06/08 01:28:21;;;;;;;;;17.25;15.50;;;;;20.47;49.80;101513.56;5094315;27;45614;-81
2021/06/08 01:30:47;;;;;;;;;15.00;14.00;;;;;20.43;49.75;101506.88;5094976;27;45729;-84
2021/06/08 01:33:17;;;;;;;;;15.50;15.00;;;;;20.21;49.96;101485.13;5094944;27;45599;-85
2021/06/08 01:35:43;;;;;;;;;18.75;18.25;;;;;20.44;49.92;101523.69;5094506;27;45494;-84
2021/06/08 01:38:09;;;;;;;;;17.75;17.50;;;;;20.15;50.81;101493.72;5078790;27;45717;-81
2021/06/08 01:40:35;;;;;;;;;20.25;16.75;;;;;20.30;50.87;101518.81;5094914;27;45871;-81
2021/06/08 01:43:01;;;;;;;;;15.00;14.00;;;;;20.28;50.90;101526.16;5098961;27;46529;-83
2021/06/08 01:45:27;;;;;;;;;16.25;14.50;;;;;20.02;51.14;101502.91;5102268;27;45560;-85
2021/06/08 01:47:53;;;;;;;;;15.75;14.75;;;;;20.15;51.79;101531.81;5083476;27;45609;-83
2021/06/08 01:50:18;;;;;;;;;19.50;18.75;;;;;20.00;51.77;101517.31;5102950;27;45611;-81
2021/06/08 01:56:11;;;;;;;;;18.50;16.75;;;;;19.86;51.55;101536.44;5099916;27;46054;-83
2021/06/08 01:59:03;;;;;;;;;19.00;18.75;;;;;19.74;51.99;101541.09;5094877;27;45903;-85
2021/06/08 02:01:47;;;;;;;;;20.75;18.75;;;;;19.72;52.34;101539.56;5094353;27;45702;-84
2021/06/08 02:04:21;;;;;;;;;22.50;20.25;;;;;19.40;52.59;101508.00;5095826;27;46506;-84
2021/06/08 02:06:52;;;;;;;;;22.00;19.00;;;;;19.53;52.84;101537.81;5098770;27;46447;-84
2021/06/08 02:09:23;;;;;;;;;19.50;17.00;;;;;19.47;53.45;101541.03;5094561;27;45639;-83
2021/06/08 02:12:00;;;;;;;;;18.75;18.50;;;;;19.40;53.87;101534.59;5094709;27;45754;-83
2021/06/08 02:14:40;;;;;;;;;18.00;17.00;;;;;19.32;53.27;101534.47;5094388;27;47284;-84
2021/06/08 02:17:44;;;;;;;;;19.50;17.00;;;;;19.20;53.05;101529.31;5094816;27;46080;-83
2021/06/08 02:20:18;;;;;;;;;17.00;17.00;;;;;18.93;53.69;101501.78;5094688;27;45776;-80
2021/06/08 02:22:47;;;;;;;;;20.25;19.25;;;;;19.14;53.30;101540.50;5096734;27;45760;-83
2021/06/08 02:25:14;;;;;;;;;21.50;20.50;;;;;19.10;53.91;101551.56;5096381;27;45799;-83
2021/06/08 02:27:41;;;;;;;;;17.75;16.25;;;;;19.00;53.47;101542.75;5094515;27;46209;-83
2021/06/08 02:30:07;;;;;;;;;20.00;19.75;;;;;18.89;54.30;101533.13;5094096;27;45501;-81
2021/06/08 02:32:33;;;;;;;;;21.00;20.00;;;;;18.78;54.17;101517.31;5093945;27;45758;-85
2021/06/08 02:35:00;;;;;;;;;17.75;17.50;;;;;18.95;53.94;101553.78;5094372;27;46288;-84
2021/06/08 02:37:27;;;;;;;;;20.25;20.00;;;;;18.74;54.09;101527.38;5095068;27;46109;-86
2021/06/08 02:39:54;;;;;;;;;21.50;20.00;;;;;18.89;54.24;101558.84;5093936;27;45811;-84
2021/06/08 02:42:21;;;;;;;;;22.00;20.75;;;;;18.89;54.36;101550.88;5076374;27;45617;-84
2021/06/08 02:44:48;;;;;;;;;20.75;19.75;;;;;18.69;54.70;101539.38;5093843;27;45497;-86
2021/06/08 02:47:16;;;;;;;;;19.75;18.50;;;;;18.78;54.38;101558.00;5095517;27;46286;-83
2021/06/08 02:49:42;;;;;;;;;20.25;19.25;;;;;18.75;54.28;101554.75;5094345;27;45720;-84
2021/06/08 02:52:10;;;;;;;;;19.00;18.75;;;;;18.73;54.21;101556.72;5096290;27;45467;-85
2021/06/08 02:54:36;;;;;;;;;19.25;18.50;;;;;18.72;54.06;101566.50;5094756;27;46304;-84
2021/06/08 02:57:02;;;;;;;;;19.50;18.00;;;;;18.52;54.44;101535.53;5094737;27;46327;-82
2021/06/08 02:59:31;;;;;;;;;24.25;21.75;;;;;18.61;54.63;101558.66;5094102;27;45828;-84
2021/06/08 03:01:58;;;;;;;;;22.50;22.50;;;;;18.51;54.96;101546.31;5094744;27;45647;-81
2021/06/08 03:04:33;;;;;;;;;23.00;21.50;;;;;18.63;54.78;101563.81;5095597;27;45706;-86
2021/06/08 03:07:02;;;;;;;;;22.25;20.00;;;;;18.60;54.45;101569.41;5094982;27;46173;-85
2021/06/08 03:09:34;;;;;;;;;19.00;18.50;;;;;18.52;54.72;101558.59;5094921;27;45801;-83
2021/06/08 03:12:04;;;;;;;;;23.25;20.50;;;;;18.35;55.05;101538.91;5095553;27;45645;-85
2021/06/08 03:14:31;;;;;;;;;23.75;21.50;;;;;18.39;54.96;101546.44;5095060;27;45725;-82
2021/06/08 03:16:59;;;;;;;;;21.75;18.75;;;;;18.35;54.73;101546.84;5094895;27;46233;-83
2021/06/08 03:19:29;;;;;;;;;21.50;20.00;;;;;18.16;55.12;101523.75;5094298;27;45831;-88
2021/06/08 03:21:58;;;;;;;;;21.25;18.75;;;;;18.40;55.11;101565.84;5095827;27;45671;-85
2021/06/08 03:24:34;;;;;;;;;20.75;20.50;;;;;18.39;55.38;101575.63;5101370;27;45582;-81
2021/06/08 03:27:01;;;;;;;;;21.00;20.00;;;;;18.36;55.28;101569.72;5099959;27;46070;-84
2021/06/08 03:29:31;;;;;;;;;17.75;17.00;;;;;18.23;54.87;101558.53;5080492;27;45641;-83
2021/06/08 03:31:57;;;;;;;;;21.00;19.50;;;;;18.32;55.49;101571.00;5095351;27;45620;-79
2021/06/08 03:34:23;;;;;;;;;22.00;21.50;;;;;18.31;55.19;101577.25;5095005;27;45503;-81
2021/06/08 03:36:52;;;;;;;;;22.00;22.00;;;;;18.18;55.31;101555.47;5094565;27;45680;-84
2021/06/08 03:39:19;;;;;;;;;23.75;21.75;;;;;18.24;55.71;101568.19;5096399;27;45494;-85
2021/06/08 03:41:48;;;;;;;;;22.00;20.75;;;;;18.20;55.32;101575.56;5097015;27;45671;-84
2021/06/08 03:44:15;;;;;;;;;21.00;20.00;;;;;18.17;55.39;101577.66;5095013;27;46471;-82
2021/06/08 03:46:41;;;;;;;;;22.50;21.25;;;;;18.15;55.81;101575.13;5093827;27;45762;-83
2021/06/08 03:49:07;;;;;;;;;22.00;20.00;;;;;17.98;55.91;101554.53;5096568;27;45568;-84
2021/06/08 03:51:33;;;;;;;;;22.00;21.25;;;;;18.12;55.45;101574.56;5097184;27;45614;-85
2021/06/08 03:57:27;;;;;;;;;23.50;23.50;;;;;17.98;55.91;101558.03;5096964;27;45554;-85
2021/06/08 03:59:55;;;;;;;;;25.75;24.00;;;;;17.99;55.74;101572.97;5100349;27;45705;-85
2021/06/08 04:02:21;;;;;;;;;22.75;21.00;;;;;18.05;55.85;101576.91;5099323;27;45608;-81
2021/06/08 04:04:48;;;;;;;;;22.00;19.50;;;;;18.04;55.54;101581.38;5100180;27;45485;-85
2021/06/08 04:07:14;;;;;;;;;27.25;24.50;;;;;17.98;55.57;101573.09;5099975;27;46389;-87
2021/06/08 04:09:40;;;;;;;;;26.75;23.50;;;;;18.03;55.48;101578.84;5098394;27;45703;-78
2021/06/08 04:12:05;;;;;;;;;22.00;21.50;;;;;18.06;55.81;101581.25;5098758;27;45545;-84
2021/06/08 04:14:32;;;;;;;;;20.50;17.75;;;;;18.01;56.37;101579.00;5099014;27;45645;-86
2021/06/08 04:16:58;;;;;;;;;24.75;21.75;;;;;18.01;56.40;101586.09;5098774;27;45651;-84
2021/06/08 04:19:23;;;;;;;;;21.75;20.50;;;;;17.89;56.14;101566.78;5100931;27;45572;-83
2021/06/08 04:21:51;;;;;;;;;21.50;21.25;;;;;17.96;55.95;101577.72;5100828;27;45628;-85
2021/06/08 04:27:38;;;;;;;;;26.75;24.75;;;;;17.93;56.26;101586.75;5096699;27;45799;-84
2021/06/08 04:30:09;;;;;;;;;23.00;21.75;;;;;17.91;56.28;101580.75;5097705;27;45677;-83
2021/06/08 04:32:35;;;;;;;;;21.25;20.00;;;;;17.80;55.99;101578.19;5097407;27;45714;-85
2021/06/08 04:35:03;;;;;;;;;22.00;21.00;;;;;17.85;56.08;101588.41;5093483;27;45545;-84
2021/06/08 04:37:29;;;;;;;;;26.00;24.50;;;;;17.71;56.10;101560.41;5092670;27;46952;-86
2021/06/08 04:39:54;;;;;;;;;25.75;23.75;;;;;17.77;56.02;101567.00;5095597;27;45496;-86
2021/06/08 04:42:20;;;;;;;;;26.75;23.00;;;;;17.74;56.27;101565.47;5094179;27;45537;-85
2021/06/08 04:44:47;;;;;;;;;25.25;23.25;;;;;17.89;56.14;101589.81;5092622;27;45514;-87
2021/06/08 04:47:15;;;;;;;;;17.50;17.00;;;;;17.89;56.67;101585.34;5092731;27;45688;-83
2021/06/08 04:49:41;;;;;;;;;23.00;21.75;;;;;17.87;56.01;101581.13;5093453;27;45640;-84
2021/06/08 04:52:07;;;;;;;;;22.00;21.00;;;;;17.87;55.92;101578.47;5093615;27;45786;-84
2021/06/08 04:57:55;;;;;;;;;23.50;22.25;;;;;17.85;56.11;101577.78;5095986;27;46228;-85
2021/06/08 05:00:28;;;;;;;;;25.50;24.00;;;;;17.91;55.83;101580.75;5094197;27;45707;-84
2021/06/08 05:02:53;;;;;;;;;25.50;24.00;;;;;18.02;56.11;101595.75;5093023;27;45763;-80
2021/06/08 05:05:25;;;;;;;;;26.00;26.00;;;;;18.01;56.40;101589.59;5092501;27;46587;-86
2021/06/08 05:08:05;;;;;;;;;25.50;24.75;;;;;18.04;55.91;101593.78;5093122;27;46011;-84
2021/06/08 05:10:36;;;;;;;;;29.50;28.00;;;;;17.97;56.31;101584.69;5093215;27;45778;-84
2021/06/08 05:13:03;;;;;;;;;24.25;23.50;;;;;17.92;56.00;101577.13;5093111;27;45554;-86
2021/06/08 05:15:30;;;;;;;;;25.50;23.00;;;;;17.94;56.23;101583.13;5093545;27;46561;-84
2021/06/08 05:17:56;;;;;;;;;24.00;22.75;;;;;18.04;56.40;101599.09;5093256;27;46138;-85
2021/06/08 05:20:23;;;;;;;;;23.75;22.25;;;;;18.03;56.69;101606.19;5093262;27;45737;-85
2021/06/08 05:22:50;;;;;;;;;25.00;23.50;;;;;18.02;56.36;101603.69;5093819;27;45820;-85
2021/06/08 05:28:41;;;;;;;;;26.50;25.25;;;;;17.98;56.43;101596.97;5096669;27;46126;-83
2021/06/08 05:31:08;;;;;;;;;26.50;24.75;;;;;17.81;56.32;101568.44;5097119;27;45620;-81
2021/06/08 05:33:33;;;;;;;;;27.75;24.75;;;;;17.93;56.20;101591.22;5098158;27;45783;-83
2021/06/08 05:35:59;;;;;;;;;31.00;27.00;;;;;17.99;56.40;101603.94;5079725;27;46392;-83
2021/06/08 05:38:33;;;;;;;;;21.75;21.50;;;;;17.98;56.41;101602.25;5096668;27;46269;-85
2021/06/08 05:41:06;;;;;;;;;25.25;23.75;;;;;17.85;56.55;101585.75;5097232;27;45764;-81
2021/06/08 05:43:32;;;;;;;;;25.75;24.75;;;;;17.86;57.03;101590.94;5082432;27;46022;-84
2021/06/08 05:45:57;;;;;;;;;26.00;26.00;;;;;17.84;56.74;101595.50;5099994;27;46544;-84
2021/06/08 05:48:23;;;;;;;;;25.50;24.25;;;;;17.94;56.66;101603.50;5099427;27;46073;-82
2021/06/08 05:50:52;;;;;;;;;26.00;23.50;;;;;17.82;56.73;101581.53;5096820;27;45767;-81
2021/06/08 05:53:18;;;;;;;;;26.00;23.75;;;;;17.96;56.79;101604.22;5100384;27;45531;-86
2021/06/08 05:55:48;;;;;;;;;25.00;23.25;;;;;17.81;56.55;101581.69;5102877;27;46365;-86
2021/06/08 05:58:13;;;;;;;;;30.00;28.25;;;;;17.91;56.57;101596.66;5102325;27;46184;-82
2021/06/08 06:00:39;;;;;;;;;29.50;28.00;;;;;17.93;56.38;101596.50;5102560;27;45716;-82
2021/06/08 06:03:05;;;;;;;;;27.25;24.25;;;;;18.02;56.55;101607.19;5102692;27;45750;-86
2021/06/08 06:05:33;;;;;;;;;30.75;28.50;;;;;18.03;56.84;101597.41;5105238;27;45906;-85
2021/06/08 06:08:00;;;;;;;;;24.25;23.25;;;;;17.90;56.71;101572.94;5105016;27;46067;-83
2021/06/08 06:14:02;;;;;;;;;25.00;23.00;;;;;18.14;57.02;101613.22;5103120;27;45731;-85
2021/06/08 06:16:34;;;;;;;;;25.50;24.00;;;;;18.09;56.96;101603.97;5106875;27;45642;-87
2021/06/08 06:19:01;;;;;;;;;25.25;24.00;;;;;17.87;56.92;101558.13;5087333;27;47615;-85
2021/06/08 06:21:27;;;;;;;;;29.00;27.75;;;;;18.15;57.29;101611.41;5102605;27;45617;-86
2021/06/08 06:23:52;;;;;;;;;25.00;23.75;;;;;18.04;57.00;101599.94;5088858;27;45493;-87
2021/06/08 06:26:18;;;;;;;;;28.00;24.50;;;;;18.08;56.62;101600.53;5093218;27;47582;-84
2021/06/08 06:28:44;;;;;;;;;28.75;27.00;;;;;17.94;56.57;101579.63;5093599;27;48553;-86
2021/06/08 06:31:10;;;;;;;;;34.25;30.00;;;;;18.04;56.99;101599.09;5090864;27;45839;-85
2021/06/08 06:33:37;;;;;;;;;30.50;28.75;;;;;17.91;57.13;101569.31;5109593;27;45457;-87
2021/06/08 06:36:07;;;;;;;;;33.00;30.25;;;;;18.22;56.51;101629.31;5089921;27;47530;-85
2021/06/08 06:38:35;;;;;;;;;27.00;26.75;;;;;18.03;56.99;101582.31;5079938;27;47722;-85
2021/06/08 06:44:24;;;;;;;;;30.00;28.50;;;;;18.21;56.45;101611.72;5098677;27;45557;-83
2021/06/08 06:46:52;;;;;;;;;29.25;28.25;;;;;18.02;57.10;101574.53;5098497;27;45607;-82
2021/06/08 06:49:23;;;;;;;;;31.75;29.75;;;;;18.25;56.66;101610.47;5079835;27;48294;-83
2021/06/08 06:51:49;;;;;;;;;31.25;28.00;;;;;18.18;56.94;101601.41;5097970;27;45678;-83
2021/06/08 06:54:15;;;;;;;;;35.00;32.00;;;;;18.39;56.91;101627.88;5098304;27;45651;-83
2021/06/08 06:56:43;;;;;;;;;35.00;32.25;;;;;18.30;56.80;101613.56;5097521;27;46423;-85
2021/06/08 06:59:09;;;;;;;;;32.00;27.00;;;;;18.37;56.47;101620.03;5097182;27;46019;-83
2021/06/08 07:01:35;;;;;;;;;33.25;30.25;;;;;18.46;56.75;101629.00;5096832;27;45602;-82
2021/06/08 07:04:01;;;;;;;;;28.50;26.75;;;;;18.42;56.63;101619.63;5097515;27;45818;-83
2021/06/08 07:06:28;;;;;;;;;33.25;29.75;;;;;18.41;56.44;101608.16;5101858;27;45509;-81
2021/06/08 07:08:56;;;;;;;;;32.25;29.00;;;;;18.57;56.50;101628.91;5103987;27;46367;-83
2021/06/08 07:14:43;;;;;;;;;30.00;27.50;;;;;18.60;56.76;101617.19;5101703;27;45740;-83
2021/06/08 07:17:09;;;;;;;;;34.50;31.00;;;;;18.67;56.97;101618.34;5102991;27;45687;-81
2021/06/08 07:19:37;;;;;;;;;27.25;25.75;;;;;18.57;56.54;101594.41;5103409;27;45744;-82
2021/06/08 07:22:03;;;;;;;;;31.75;30.25;;;;;18.78;56.43;101629.69;5083368;27;45826;-85
2021/06/08 07:24:30;;;;;;;;;32.00;29.50;;;;;18.64;56.42;101597.34;5097302;27;45601;-85
2021/06/08 07:26:55;;;;;;;;;32.75;31.25;;;;;18.84;56.42;101617.66;5097148;27;45430;-84
2021/06/08 07:29:21;;;;;;;;;37.25;33.25;;;;;18.88;56.92;101624.38;5096518;27;46067;-78
2021/06/08 07:31:56;;;;;;;;;32.00;29.75;;;;;18.90;56.92;101619.75;5096129;27;45500;-82
2021/06/08 07:34:59;;;;;;;;;39.50;32.00;;;;;18.93;56.28;101624.81;5096735;27;45685;-83
2021/06/08 07:37:26;;;;;;;;;28.25;27.50;;;;;18.94;56.26;101621.19;5096718;27;45575;-82
2021/06/08 07:39:57;;;;;;;;;31.50;27.75;;;;;18.83;56.59;101602.72;5097451;27;46297;-80
2021/06/08 07:42:31;;;;;;;;;34.75;31.50;;;;;19.00;56.50;101625.09;5095921;27;45656;-81
2021/06/08 07:45:14;;;;;;;;;31.25;29.25;;;;;19.00;56.55;101615.28;5095337;27;45588;-82
2021/06/08 07:47:41;;;;;;;;;34.00;30.75;;;;;18.96;56.19;101610.41;5095182;27;46890;-83
2021/06/08 07:50:08;;;;;;;;;32.25;30.25;;;;;19.10;56.21;101625.94;5096812;27;45894;-87
2021/06/08 07:52:54;;;;;;;;;33.50;30.00;;;;;19.13;56.19;101625.66;5032928;28;45706;-85
2021/06/08 07:55:19;;;;;;;;;34.25;29.75;;;;;19.07;56.32;101604.94;5032668;28;45865;-81
2021/06/08 07:57:46;;;;;;;;;32.25;31.00;;;;;19.18;56.17;101613.63;5016200;28;47503;-82
2021/06/08 08:00:13;;;;;;;;;29.75;28.25;;;;;19.12;56.22;101592.09;5033841;28;45699;-83
2021/06/08 08:02:40;;;;;;;;;30.25;28.00;;;;;19.14;55.97;101596.28;5032854;28;45804;-84
2021/06/08 08:05:10;;;;;;;;;33.75;31.25;;;;;19.28;56.48;101614.47;5033247;28;45679;-84
2021/06/08 08:07:36;;;;;;;;;33.00;30.75;;;;;19.24;56.11;101598.94;5015644;28;47686;-85
2021/06/08 08:10:02;;;;;;;;;34.50;29.75;;;;;19.17;55.99;101576.56;5032096;28;45796;-85
2021/06/08 08:12:36;;;;;;;;;37.75;32.75;;;;;19.41;56.18;101619.50;5015590;28;45971;-82
2021/06/08 08:15:06;;;;;;;;;32.50;30.25;;;;;19.25;55.77;101574.91;5032174;28;45814;-83
2021/06/08 08:17:32;;;;;;;;;34.50;29.50;;;;;19.33;55.89;101587.47;5032050;28;46554;-84
2021/06/08 08:20:00;;;;;;;;;34.00;31.25;;;;;19.30;55.69;101569.16;5015364;28;47653;-84
2021/06/08 08:22:26;;;;;;;;;34.25;30.00;;;;;19.46;55.54;101593.38;5031957;28;45879;-83
2021/06/08 08:24:51;;;;;;;;;34.25;31.75;;;;;19.37;55.93;101556.97;5032464;28;45896;-82
2021/06/08 08:27:17;;;;;;;;;34.75;31.75;;;;;19.61;55.80;101588.44;5031586;28;45565;-83
2021/06/08 08:29:45;;;;;;;;;35.00;33.50;;;;;19.54;55.86;101566.06;5049656;28;45630;-83
2021/06/08 08:32:12;;;;;;;;;33.50;29.75;;;;;19.73;55.69;101584.63;5080976;28;45644;-84
2021/06/08 08:34:39;;;;;;;;;30.50;29.00;;;;;19.75;55.31;101576.50;5080188;28;45654;-83
2021/06/08 08:37:05;;;;;;;;;28.25;27.00;;;;;19.80;55.26;101572.44;5060767;28;47566;-83
2021/06/08 08:39:31;;;;;;;;;34.00;31.50;;;;;19.78;55.38;101566.41;5079405;28;46615;-84
2021/06/08 08:45:18;;;;;;;;;31.25;29.00;;;;;20.09;55.29;101583.78;5074424;28;45647;-83
2021/06/08 08:47:44;;;;;;;;;24.75;23.75;;;;;20.13;54.93;101581.69;5074532;28;45853;-83
2021/06/08 08:50:14;;;;;;;;;25.75;24.75;;;;;20.19;54.58;101585.59;5074756;28;46093;-84
2021/06/08 08:52:55;;;;;;;;;28.50;26.25;;;;;20.30;54.61;101593.34;5074648;28;45639;-82
2021/06/08 08:55:24;;;;;;;;;28.50;27.00;;;;;20.38;54.37;101586.34;5074717;28;45668;-84
2021/06/08 08:57:51;;;;;;;;;25.75;24.00;;;;;20.44;54.46;101590.25;5076348;28;46796;-83
2021/06/08 09:00:17;;;;;;;;;28.50;26.25;;;;;20.51;54.20;101589.47;5078108;28;45708;-83
2021/06/08 09:02:43;;;;;;;;;26.75;24.00;;;;;20.27;54.16;101540.44;5076417;28;45586;-86
2021/06/08 09:05:11;;;;;;;;;27.00;24.25;;;;;20.49;54.15;101570.19;5060660;28;45786;-83
2021/06/08 09:07:36;;;;;;;;;29.50;27.50;;;;;20.69;54.13;101592.19;5077975;28;47047;-83
2021/06/08 09:10:04;;;;;;;;;26.00;24.00;;;;;20.78;53.61;101585.94;5078114;28;46170;-85
2021/06/08 09:12:29;;;;;;;;;32.75;26.25;;;;;20.79;53.63;101574.31;5078032;28;45850;-83
2021/06/08 09:14:55;;;;;;;;;34.00;27.75;;;;;20.89;53.71;101582.25;5089280;27;45640;-84
2021/06/08 09:17:21;;;;;;;;;31.75;29.25;;;;;20.80;53.53;101552.00;5098178;27;46879;-84
2021/06/08 09:19:47;;;;;;;;;31.50;29.50;;;;;21.03;53.28;101572.88;5098917;27;46057;-84
2021/06/08 09:22:14;;;;;;;;;28.75;27.00;;;;;21.00;53.15;101557.19;5098405;27;45660;-83
2021/06/08 09:24:43;;;;;;;;;29.50;28.75;;;;;21.06;52.59;101565.38;5080112;27;45552;-84
2021/06/08 09:27:09;;;;;;;;;29.50;27.75;;;;;21.17;52.74;101567.84;5097929;27;45808;-83
2021/06/08 09:29:36;;;;;;;;;26.50;25.50;;;;;21.23;52.69;101575.22;5079575;27;46793;-84
2021/06/08 09:32:27;;;;;;;;;29.75;28.50;;;;;21.29;52.52;101563.13;5098483;27;45743;-85
2021/06/08 09:34:59;;;;;;;;;32.00;27.50;;;;;21.23;52.51;101543.25;5097779;27;45543;-83
2021/06/08 09:37:32;;;;;;;;;24.75;21.50;;;;;21.38;52.43;101550.69;5079245;27;47422;-84
2021/06/08 09:39:58;;;;;;;;;26.00;24.25;;;;;21.47;51.96;101563.94;5097841;27;46172;-84
2021/06/08 09:42:28;;;;;;;;;28.75;26.50;;;;;21.54;51.64;101562.28;5079499;27;45714;-83
2021/06/08 09:45:08;;;;;;;;;29.50;26.50;;;;;21.38;51.41;101524.84;5098678;27;45778;-83
2021/06/08 09:47:34;;;;;;;;;27.00;23.75;;;;;21.67;51.44;101562.72;5080598;27;47806;-83
2021/06/08 09:50:00;;;;;;;;;20.00;20.00;;;;;21.57;51.37;101542.47;5080388;27;48025;-84
2021/06/08 09:52:26;;;;;;;;;21.75;20.00;;;;;21.63;51.27;101545.38;5080597;27;45753;-83
2021/06/08 09:54:57;;;;;;;;;27.50;25.25;;;;;21.70;50.77;101542.91;5080891;27;45594;-83
2021/06/08 09:57:29;;;;;;;;;29.75;25.75;;;;;21.71;50.55;101534.72;5098240;27;46684;-85
2021/06/08 09:59:59;;;;;;;;;26.00;23.50;;;;;21.95;50.53;101563.41;5080551;27;47482;-84
2021/06/08 10:02:27;;;;;;;;;24.00;23.00;;;;;22.00;50.57;101553.09;5080410;27;45928;-85
2021/06/08 10:05:13;;;;;;;;;22.00;22.00;;;;;21.88;50.10;101526.81;5082694;27;45598;-84
2021/06/08 10:07:39;;;;;;;;;22.75;22.00;;;;;21.89;50.07;101528.47;5105404;27;45808;-85
2021/06/08 10:10:09;;;;;;;;;19.00;18.50;;;;;22.15;50.00;101551.47;5085849;27;47108;-85
2021/06/08 10:12:36;;;;;;;;;22.00;21.00;;;;;22.10;49.86;101536.94;5082558;27;45542;-78
2021/06/08 10:15:10;;;;;;;;;19.75;18.75;;;;;22.25;49.88;101546.00;5084693;27;45569;-81
2021/06/08 10:17:38;;;;;;;;;22.25;20.50;;;;;22.24;49.64;101536.31;5083987;27;47847;-81
2021/06/08 10:20:25;;;;;;;;;21.25;20.25;;;;;22.37;49.21;101549.22;5102671;27;46467;-80
2021/06/08 10:22:52;;;;;;;;;20.75;18.25;;;;;22.41;49.23;101548.72;5098350;27;45708;-81
2021/06/08 10:25:18;;;;;;;;;19.00;18.25;;;;;22.40;48.98;101532.88;5097443;27;45626;-83
2021/06/08 10:27:44;;;;;;;;;20.00;20.00;;;;;22.40;48.89;101522.19;5097264;27;45573;-78
2021/06/08 10:30:11;;;;;;;;;18.25;18.00;;;;;22.53;48.73;101547.41;5097007;27;45558;-82
2021/06/08 10:32:37;;;;;;;;;20.00;19.25;;;;;22.43;48.96;101516.50;5096779;27;45590;-81
2021/06/08 10:35:07;;;;;;;;;21.50;19.50;;;;;22.59;48.90;101527.22;5097372;27;45653;-79
2021/06/08 10:37:33;;;;;;;;;25.25;24.00;;;;;22.65;48.14;101539.94;5099425;27;46550;-80
2021/06/08 10:40:00;;;;;;;;;21.25;20.50;;;;;22.74;47.86;101548.81;5101341;27;45887;-80
2021/06/08 10:42:27;;;;;;;;;24.25;23.50;;;;;22.80;48.37;101537.47;5101239;27;45535;-81
2021/06/08 10:45:13;;;;;;;;;21.75;20.25;;;;;22.81;48.46;101531.97;5082402;27;45831;-81
2021/06/08 10:47:51;;;;;;;;;19.75;18.75;;;;;22.84;47.72;101520.09;5100109;27;45593;-81
2021/06/08 10:50:32;;;;;;;;;18.75;17.50;;;;;22.97;47.56;101529.31;5079307;27;47319;-81
2021/06/08 10:52:58;;;;;;;;;16.25;16.25;;;;;22.99;47.64;101523.81;5097267;27;45558;-81
2021/06/08 10:55:40;;;;;;;;;17.00;15.00;;;;;23.10;47.61;101528.81;5097123;27;45933;-81
2021/06/08 10:58:07;;;;;;;;;15.25;14.75;;;;;23.11;46.96;101522.44;5101254;27;45941;-80
2021/06/08 11:00:43;;;;;;;;;15.00;14.50;;;;;23.18;46.50;101528.78;5099064;27;45550;-81
2021/06/08 11:03:11;;;;;;;;;14.00;14.00;;;;;23.11;46.19;101494.84;5097595;27;45732;-81
2021/06/08 11:05:49;;;;;;;;;18.25;17.50;;;;;23.34;46.17;101525.25;5077954;27;45678;-84
2021/06/08 11:08:15;;;;;;;;;16.75;16.75;;;;;23.38;45.79;101527.41;5096172;27;46286;-79
2021/06/08 11:10:51;;;;;;;;;16.25;15.25;;;;;23.27;46.14;101501.03;5098468;27;46267;-87
2021/06/08 11:13:17;;;;;;;;;17.75;17.75;;;;;23.43;44.95;101529.59;5094589;27;45778;-85
2021/06/08 11:15:50;;;;;;;;;15.50;15.50;;;;;23.40;45.51;101517.41;5079998;27;45952;-82
2021/06/08 11:18:28;;;;;;;;;14.00;13.00;;;;;23.50;45.18;101529.78;5081923;27;46495;-87
2021/06/08 11:21:02;;;;;;;;;16.75;15.75;;;;;23.54;44.59;101523.91;5084797;27;47437;-82
2021/06/08 11:23:42;;;;;;;;;18.75;18.75;;;;;23.51;44.95;101504.69;5080742;27;45708;-84
2021/06/08 11:30:01;;;;;;;;;14.25;14.25;;;;;23.70;44.41;101518.50;5101753;27;45593;-83
2021/06/08 11:32:30;;;;;;;;;15.75;15.25;;;;;23.77;43.92;101507.97;5101556;27;46201;-86
2021/06/08 11:35:06;;;;;;;;;18.00;17.50;;;;;23.79;43.77;101508.63;5102341;27;45967;-86
2021/06/08 11:37:55;;;;;;;;;18.50;18.25;;;;;23.91;44.17;101504.56;5082185;27;45836;-81
2021/06/08 11:40:39;;;;;;;;;18.50;16.25;;;;;23.98;43.70;101500.16;5077785;27;46757;-82
2021/06/08 11:47:02;;;;;;;;;16.25;15.00;;;;;24.01;43.15;101490.97;5096708;27;45747;-89
2021/06/08 11:49:30;;;;;;;;;13.00;13.00;;;;;24.00;42.71;101487.44;5082235;27;46006;-88
2021/06/08 11:52:13;;;;;;;;;12.75;12.00;;;;;23.91;42.10;101474.28;5069398;27;47196;-88
2021/06/08 11:54:42;;;;;;;;;12.00;10.50;;;;;23.83;42.79;101454.56;5083102;27;47083;-86
2021/06/08 11:57:11;;;;;;;;;11.75;11.75;;;;;24.28;42.72;101522.66;5078973;27;45851;-83
2021/06/08 11:59:45;;;;;;;;;13.00;13.00;;;;;24.31;42.48;101508.91;5079979;27;45623;-90
2021/06/08 12:02:57;;;;;;;;;15.25;14.00;;;;;24.01;42.69;101467.72;5086570;27;46917;-91
2021/06/08 12:06:01;;;;;;;;;15.50;14.25;;;;;24.40;42.34;101521.22;5088511;27;47319;-93
2021/06/08 12:08:37;;;;;;;;;16.00;14.50;;;;;24.22;42.61;101477.81;5082600;27;45795;-91
2021/06/08 12:18:16;;;;;;;;;16.50;16.00;;;;;24.52;41.98;101510.94;5039965;28;45780;-91